Time;durP1;ratioP1;P1;durP2;ratioP2;P2;SDS_P1;SDS_P2;PMS_P1;PMS_P2;Temp;Humidity;BMP_temperature;BMP_pressure;BME280_temperature;BME280_humidity;BME280_pressure;Samples;Min_cycle;Max_cycle;Signal;HPM_P1;HPM_P2
2022/09/10 12:56:30;;;;;;;;;0.67;0.00;;;;;;;;5138185;27;77740;-81
2022/09/10 12:59:14;;;;;;;;;1.00;1.00;;;;;;;;5113588;27;21159;-77
2022/09/10 13:01:42;;;;;;;;;1.25;1.00;;;;;;;;5116098;28;10355;-81
2022/09/10 13:04:24;;;;;;;;;2.25;0.75;;;;;;;;5116101;28;8824;-80
2022/09/10 13:06:52;;;;;;;;;0.00;0.00;;;;;;;;5096666;28;13514;-79
2022/09/10 13:09:22;;;;;;;;;0.00;0.00;;;;;;;;5126774;27;11824;-75
2022/09/10 13:11:51;;;;;;;;;1.75;0.25;;;;;;;;5136603;27;8818;-76
2022/09/10 13:14:22;;;;;;;;;0.00;0.00;;;;;;;;5135503;27;11583;-76
2022/09/10 13:16:48;;;;;;;;;1.50;1.00;;;;;;;;5136088;27;12351;-76
2022/09/10 13:19:13;;;;;;;;;6.00;6.00;;;;;;;;5114696;27;11457;-76
2022/09/10 13:21:41;;;;;;;;;0.33;0.33;;;;;;;;5135840;27;10810;-76
2022/09/10 13:24:29;;;;;;;;;1.50;1.25;;;;;;;;5135570;27;11089;-79
2022/09/10 14:36:58;;;;;;;;;0.33;0.33;;;;;;;;5105181;27;104890;-72
2022/09/10 14:39:24;;;;;;;;;0.00;0.00;;;;;;;;5084684;28;31040;-72
2022/09/10 14:42:06;;;;;;;;;0.67;0.00;;;;;;;;5071476;28;8822;-71
2022/09/10 14:44:37;;;;;;;;;0.75;0.75;;;;;;;;5068302;28;8790;-72
2022/09/10 14:47:09;;;;;;;;;3.50;1.50;;;;;;;;5054797;28;10087;-72
2022/09/10 14:49:37;;;;;;;;;3.25;1.00;;;;;;;;5053923;28;11555;-72
2022/09/10 14:52:02;;;;;;;;;0.00;0.00;;;;;;;;5067423;28;11164;-74
2022/09/10 14:54:29;;;;;;;;;1.00;0.00;;;;;;;;5054851;28;10251;-73
2022/09/10 14:56:55;;;;;;;;;0.00;0.00;;;;;;;;5059167;28;8810;-71
2022/09/10 14:59:20;;;;;;;;;0.50;0.00;;;;;;;;5073886;28;8787;-71
2022/09/10 15:01:47;;;;;;;;;0.00;0.00;;;;;;;;5000978;28;10439;-71
2022/09/10 15:04:22;;;;;;;;;0.00;0.00;;;;;;;;5056136;28;8817;-71
2022/09/10 15:06:50;;;;;;;;;1.00;0.00;;;;;;;;5074674;28;8807;-72
2022/09/10 15:09:16;;;;;;;;;0.00;0.00;;;;;;;;5072280;28;9161;-72
2022/09/10 15:12:02;;;;;;;;;1.33;0.00;;;;;;;;5065578;28;8856;-72
2022/09/10 15:14:28;;;;;;;;;0.00;0.00;;;;;;;;5060688;28;8951;-71
2022/09/10 15:16:53;;;;;;;;;1.25;0.00;;;;;;;;5056093;28;9036;-72
2022/09/10 15:19:19;;;;;;;;;1.00;0.00;;;;;;;;5015134;28;10572;-72
2022/09/10 15:21:44;;;;;;;;;0.00;0.00;;;;;;;;5052738;28;8837;-72
2022/09/10 15:24:12;;;;;;;;;0.00;0.00;;;;;;;;5053304;28;8811;-72
2022/09/10 15:26:38;;;;;;;;;0.00;0.00;;;;;;;;5070058;28;8818;-72
2022/09/10 15:29:03;;;;;;;;;0.00;0.00;;;;;;;;5072286;28;8871;-73
2022/09/10 15:31:29;;;;;;;;;0.00;0.00;;;;;;;;5072132;28;8834;-72
2022/09/10 15:33:55;;;;;;;;;1.67;0.00;;;;;;;;5073727;28;8826;-72
2022/09/10 15:36:21;;;;;;;;;3.50;0.00;;;;;;;;5088491;28;9089;-72
2022/09/10 15:38:51;;;;;;;;;0.00;0.00;;;;;;;;5092554;28;9363;-72
2022/09/10 15:41:17;;;;;;;;;1.00;0.00;;;;;;;;5094288;28;8842;-72
2022/09/10 15:43:42;;;;;;;;;0.00;0.00;;;;;;;;5086899;28;8806;-73
2022/09/10 15:46:09;;;;;;;;;0.00;0.00;;;;;;;;5090530;28;8918;-72
2022/09/10 15:48:35;;;;;;;;;0.00;0.00;;;;;;;;5061345;28;8782;-72
2022/09/10 15:51:04;;;;;;;;;1.50;0.00;;;;;;;;5059991;28;8783;-73
2022/09/10 15:53:33;;;;;;;;;0.00;0.00;;;;;;;;5058006;28;13198;-73
2022/09/10 15:56:02;;;;;;;;;0.50;0.00;;;;;;;;5058957;28;9046;-73
2022/09/10 15:58:27;;;;;;;;;3.75;0.00;;;;;;;;5057636;28;8770;-75
2022/09/10 16:00:53;;;;;;;;;2.50;0.00;;;;;;;;5059672;28;8995;-72
2022/09/10 16:03:19;;;;;;;;;1.00;0.00;;;;;;;;5057864;28;11469;-73
2022/09/10 16:05:44;;;;;;;;;0.00;0.00;;;;;;;;5088279;28;11301;-73
2022/09/10 16:08:10;;;;;;;;;0.00;0.00;;;;;;;;5063289;28;9048;-73
2022/09/10 16:10:37;;;;;;;;;0.00;0.00;;;;;;;;5059324;28;8832;-74
2022/09/10 16:13:03;;;;;;;;;0.00;0.00;;;;;;;;5059636;28;8779;-73
2022/09/10 16:15:28;;;;;;;;;0.00;0.00;;;;;;;;5073849;28;8886;-75
2022/09/10 16:17:53;;;;;;;;;1.00;0.00;;;;;;;;5082285;28;9881;-74
2022/09/10 16:20:19;;;;;;;;;0.00;0.00;;;;;;;;5097922;28;8964;-73
2022/09/10 16:22:44;;;;;;;;;0.00;0.00;;;;;;;;5099486;28;8922;-73
2022/09/10 16:25:10;;;;;;;;;1.67;1.00;;;;;;;;5094262;28;8833;-74
2022/09/10 16:27:36;;;;;;;;;3.25;2.25;;;;;;;;5078884;28;10695;-74
2022/09/10 16:30:01;;;;;;;;;0.00;0.00;;;;;;;;5078402;28;13849;-78
2022/09/10 16:32:27;;;;;;;;;2.00;1.00;;;;;;;;5078088;28;13882;-73
2022/09/10 16:34:52;;;;;;;;;2.25;0.00;;;;;;;;5078984;28;8894;-73
2022/09/10 16:37:18;;;;;;;;;0.33;0.00;;;;;;;;5083447;28;9577;-73
2022/09/10 16:39:43;;;;;;;;;4.00;2.00;;;;;;;;5099870;28;8795;-74
2022/09/10 16:42:08;;;;;;;;;0.00;0.00;;;;;;;;5099128;28;10493;-72
2022/09/10 16:44:34;;;;;;;;;1.67;0.00;;;;;;;;5092663;28;9505;-74
2022/09/10 16:47:00;;;;;;;;;3.33;1.00;;;;;;;;5093940;28;9570;-75
2022/09/10 16:49:26;;;;;;;;;0.75;0.25;;;;;;;;5079796;28;10841;-74
2022/09/10 16:51:51;;;;;;;;;1.33;1.33;;;;;;;;5096341;28;12001;-74
2022/09/10 16:54:19;;;;;;;;;2.67;2.00;;;;;;;;5095834;28;9582;-75
2022/09/10 16:56:46;;;;;;;;;0.75;0.00;;;;;;;;5077798;28;11836;-74
2022/09/10 16:59:13;;;;;;;;;0.00;0.00;;;;;;;;5098748;28;10543;-74
2022/09/10 17:01:39;;;;;;;;;1.25;1.00;;;;;;;;5098622;28;8787;-76
2022/09/10 17:04:06;;;;;;;;;7.00;2.00;;;;;;;;5096989;28;10489;-73
2022/09/10 17:06:31;;;;;;;;;1.50;1.50;;;;;;;;5077927;28;10559;-74
2022/09/10 17:08:58;;;;;;;;;5.00;5.00;;;;;;;;5098108;28;12080;-73
2022/09/10 17:11:27;;;;;;;;;5.00;3.50;;;;;;;;5011112;28;11753;-72
2022/09/10 17:13:55;;;;;;;;;3.00;3.00;;;;;;;;5086944;28;8805;-72
2022/09/10 17:16:29;;;;;;;;;3.00;1.00;;;;;;;;5090315;28;11607;-73
2022/09/10 17:18:59;;;;;;;;;3.00;2.00;;;;;;;;5076507;28;8809;-74
2022/09/10 17:21:25;;;;;;;;;2.50;2.50;;;;;;;;5088740;28;8783;-74
2022/09/10 17:23:51;;;;;;;;;2.00;2.00;;;;;;;;5090656;28;11635;-72
2022/09/10 17:26:16;;;;;;;;;1.00;1.00;;;;;;;;5086566;28;8917;-73
2022/09/10 17:28:42;;;;;;;;;3.00;2.00;;;;;;;;5084851;28;8795;-74
2022/09/10 17:31:07;;;;;;;;;0.00;0.00;;;;;;;;5087068;28;8909;-74
2022/09/10 17:33:32;;;;;;;;;2.00;1.00;;;;;;;;5104642;28;10816;-74
2022/09/10 17:36:02;;;;;;;;;1.00;1.00;;;;;;;;5085618;28;8850;-74
2022/09/10 17:38:28;;;;;;;;;2.00;2.00;;;;;;;;5086511;28;8817;-75
2022/09/10 17:40:58;;;;;;;;;1.00;1.00;;;;;;;;5086371;28;9952;-75
2022/09/10 17:43:24;;;;;;;;;3.50;1.00;;;;;;;;5087789;28;8883;-73
2022/09/10 17:45:50;;;;;;;;;4.67;3.67;;;;;;;;5086603;28;9114;-72
2022/09/10 17:48:15;;;;;;;;;5.00;1.67;;;;;;;;5083732;28;12117;-72
2022/09/10 17:50:50;;;;;;;;;1.67;1.00;;;;;;;;5088386;28;10462;-73
2022/09/10 17:53:16;;;;;;;;;1.50;1.50;;;;;;;;5095082;28;11817;-74
2022/09/10 17:55:42;;;;;;;;;1.25;1.25;;;;;;;;5096348;28;8966;-73
2022/09/10 17:58:07;;;;;;;;;1.00;1.00;;;;;;;;5082812;28;8932;-74
2022/09/10 18:00:35;;;;;;;;;4.00;3.00;;;;;;;;5078128;28;8857;-74
2022/09/10 18:03:01;;;;;;;;;0.00;0.00;;;;;;;;5092700;28;11150;-73
2022/09/10 18:05:27;;;;;;;;;0.00;0.00;;;;;;;;5087927;28;10679;-74
2022/09/10 18:07:53;;;;;;;;;1.25;1.25;;;;;;;;5084857;28;9561;-74
2022/09/10 18:10:18;;;;;;;;;3.33;2.00;;;;;;;;5077744;28;11568;-74
2022/09/10 18:12:46;;;;;;;;;4.67;4.00;;;;;;;;5077340;28;11581;-74
2022/09/10 18:15:14;;;;;;;;;8.00;4.75;;;;;;;;5077838;28;10648;-76
2022/09/10 18:17:40;;;;;;;;;10.25;4.75;;;;;;;;5075877;28;11778;-76
2022/09/10 18:20:05;;;;;;;;;6.33;4.00;;;;;;;;5077160;28;17220;-75
2022/09/10 18:22:31;;;;;;;;;2.33;2.00;;;;;;;;5077517;28;21927;-77
2022/09/10 18:24:57;;;;;;;;;4.33;3.33;;;;;;;;5076858;28;10305;-75
2022/09/10 18:27:22;;;;;;;;;5.33;3.00;;;;;;;;5077566;28;11514;-74
2022/09/10 18:29:48;;;;;;;;;3.33;3.00;;;;;;;;5077513;28;11754;-74
2022/09/10 18:32:13;;;;;;;;;5.00;1.33;;;;;;;;5077191;28;8822;-75
2022/09/10 18:34:39;;;;;;;;;4.67;3.00;;;;;;;;5077715;28;11491;-77
2022/09/10 18:37:04;;;;;;;;;4.67;2.67;;;;;;;;5093050;28;13963;-79
2022/09/10 18:39:32;;;;;;;;;2.00;2.00;;;;;;;;5090796;28;10042;-79
2022/09/10 18:41:59;;;;;;;;;4.50;4.25;;;;;;;;5085036;28;11841;-77
2022/09/10 18:44:26;;;;;;;;;6.50;4.00;;;;;;;;5078603;28;11603;-78
2022/09/10 18:46:51;;;;;;;;;2.75;2.00;;;;;;;;5082655;28;11639;-75
2022/09/10 18:49:18;;;;;;;;;2.33;0.33;;;;;;;;5086741;28;10453;-84
2022/09/10 18:51:44;;;;;;;;;1.00;1.00;;;;;;;;5081305;28;11649;-82
2022/09/10 18:54:11;;;;;;;;;1.33;0.00;;;;;;;;5086822;28;11947;-81
2022/09/10 18:56:37;;;;;;;;;1.50;1.00;;;;;;;;5084138;28;10345;-77
2022/09/10 18:59:05;;;;;;;;;4.00;2.00;;;;;;;;5084783;28;9776;-75
2022/09/10 19:01:31;;;;;;;;;2.50;1.00;;;;;;;;5081898;28;10942;-75
2022/09/10 19:03:57;;;;;;;;;1.67;1.00;;;;;;;;5073993;28;10694;-77
2022/09/10 19:06:23;;;;;;;;;1.33;0.00;;;;;;;;5087257;28;9046;-75
2022/09/10 19:08:51;;;;;;;;;4.33;2.00;;;;;;;;5086190;28;10225;-77
2022/09/10 19:11:17;;;;;;;;;2.00;2.00;;;;;;;;5087284;28;8958;-77
2022/09/10 19:13:46;;;;;;;;;2.33;1.00;;;;;;;;5085656;28;9604;-84
2022/09/10 19:16:12;;;;;;;;;4.00;1.00;;;;;;;;5087800;28;9690;-82
2022/09/10 19:18:40;;;;;;;;;2.67;2.00;;;;;;;;5087689;28;9402;-81
2022/09/10 19:21:05;;;;;;;;;0.75;0.75;;;;;;;;5085786;28;10596;-76
2022/09/10 19:23:34;;;;;;;;;4.00;3.33;;;;;;;;5091043;28;11519;-79
2022/09/10 19:26:00;;;;;;;;;12.00;11.00;;;;;;;;5090843;28;11090;-77
2022/09/10 19:28:29;;;;;;;;;7.00;7.00;;;;;;;;5089835;28;23043;-76
2022/09/10 19:31:00;;;;;;;;;3.25;2.00;;;;;;;;5088421;28;23297;-76
2022/09/10 19:33:26;;;;;;;;;2.00;0.75;;;;;;;;5095485;28;11028;-78
2022/09/10 19:35:51;;;;;;;;;1.00;1.00;;;;;;;;5099920;28;13308;-75
2022/09/10 19:38:17;;;;;;;;;4.00;2.00;;;;;;;;5098158;28;11474;-72
2022/09/10 19:40:42;;;;;;;;;2.00;0.67;;;;;;;;5101639;28;9535;-77
2022/09/10 19:43:07;;;;;;;;;1.00;1.00;;;;;;;;5101184;28;11514;-70
2022/09/10 19:45:32;;;;;;;;;0.00;0.00;;;;;;;;5100920;28;11963;-71
2022/09/10 19:47:58;;;;;;;;;1.00;0.00;;;;;;;;5100338;28;8988;-71
2022/09/10 19:50:24;;;;;;;;;1.67;1.00;;;;;;;;5100786;28;8794;-71
2022/09/10 19:52:50;;;;;;;;;1.00;1.00;;;;;;;;5101431;28;9681;-72
2022/09/10 19:55:17;;;;;;;;;2.00;1.00;;;;;;;;5101207;28;8957;-72
2022/09/10 19:57:42;;;;;;;;;0.75;0.75;;;;;;;;5100578;28;8795;-73
2022/09/10 20:00:08;;;;;;;;;0.00;0.00;;;;;;;;5100362;28;13146;-72
2022/09/10 20:02:33;;;;;;;;;1.33;1.33;;;;;;;;5101085;28;8787;-72
2022/09/10 20:04:58;;;;;;;;;0.33;0.33;;;;;;;;5100076;28;11782;-72
2022/09/10 20:07:24;;;;;;;;;3.00;1.00;;;;;;;;5100233;28;8790;-72
2022/09/10 20:09:49;;;;;;;;;3.00;1.33;;;;;;;;5101153;28;11865;-73
2022/09/10 20:12:15;;;;;;;;;3.00;2.00;;;;;;;;5093887;28;8847;-72
2022/09/10 20:14:40;;;;;;;;;2.00;0.00;;;;;;;;5089341;28;8933;-73
2022/09/10 20:17:06;;;;;;;;;0.00;0.00;;;;;;;;5090130;28;8921;-73
2022/09/10 20:19:31;;;;;;;;;2.00;0.00;;;;;;;;5091825;28;8787;-73
2022/09/10 20:21:56;;;;;;;;;1.00;0.00;;;;;;;;5088057;28;8821;-73
2022/09/10 20:24:22;;;;;;;;;0.00;0.00;;;;;;;;5090369;28;8786;-72
2022/09/10 20:26:48;;;;;;;;;0.00;0.00;;;;;;;;5090879;28;8814;-72
2022/09/10 20:29:14;;;;;;;;;0.00;0.00;;;;;;;;5086232;28;11589;-72
2022/09/10 20:31:40;;;;;;;;;0.75;0.00;;;;;;;;5081007;28;8815;-74
2022/09/10 20:34:06;;;;;;;;;1.00;0.00;;;;;;;;5080394;28;8789;-72
2022/09/10 20:36:33;;;;;;;;;1.00;0.00;;;;;;;;5079801;28;10282;-72
2022/09/10 20:38:59;;;;;;;;;1.75;0.00;;;;;;;;5080413;28;10558;-73
2022/09/10 20:41:28;;;;;;;;;0.00;0.00;;;;;;;;5080295;28;9495;-73
2022/09/10 20:43:57;;;;;;;;;1.50;1.00;;;;;;;;5080299;28;10350;-73
2022/09/10 20:46:22;;;;;;;;;2.00;2.00;;;;;;;;5079882;28;10558;-74
2022/09/10 20:48:48;;;;;;;;;0.33;0.33;;;;;;;;5095136;28;12446;-74
2022/09/10 20:51:13;;;;;;;;;1.00;0.00;;;;;;;;5079752;28;11919;-74
2022/09/10 20:53:39;;;;;;;;;2.00;0.33;;;;;;;;5096041;28;14150;-74
2022/09/10 20:56:06;;;;;;;;;0.67;0.67;;;;;;;;5095554;28;13534;-73
2022/09/10 20:58:34;;;;;;;;;1.00;0.00;;;;;;;;5078569;28;14026;-74
2022/09/10 21:01:06;;;;;;;;;1.00;1.00;;;;;;;;5080689;28;11554;-74
2022/09/10 21:03:32;;;;;;;;;0.00;0.00;;;;;;;;5080007;28;8786;-73
2022/09/10 21:05:57;;;;;;;;;0.00;0.00;;;;;;;;5079977;28;8968;-73
2022/09/10 21:08:23;;;;;;;;;2.33;0.67;;;;;;;;5079875;28;8797;-74
2022/09/10 21:10:49;;;;;;;;;0.00;0.00;;;;;;;;5078822;28;13601;-73
2022/09/10 21:13:14;;;;;;;;;0.00;0.00;;;;;;;;5080029;28;11485;-73
2022/09/10 21:15:41;;;;;;;;;1.00;0.00;;;;;;;;5080542;28;8826;-73
2022/09/10 21:18:08;;;;;;;;;2.50;1.00;;;;;;;;5079695;28;8920;-74
2022/09/10 21:20:33;;;;;;;;;1.50;1.00;;;;;;;;5079605;28;11077;-74
2022/09/10 21:22:59;;;;;;;;;3.67;3.00;;;;;;;;5082015;28;8795;-75
2022/09/10 21:25:24;;;;;;;;;5.00;4.67;;;;;;;;5091117;28;10942;-73
2022/09/10 21:27:50;;;;;;;;;2.00;1.00;;;;;;;;5105773;28;12553;-73
2022/09/10 21:30:15;;;;;;;;;1.00;1.00;;;;;;;;5087695;28;11500;-73
2022/09/10 21:32:44;;;;;;;;;1.67;1.00;;;;;;;;5085632;28;8825;-73
2022/09/10 21:35:10;;;;;;;;;3.75;1.00;;;;;;;;5076182;28;8825;-72
2022/09/10 21:37:35;;;;;;;;;3.00;3.00;;;;;;;;5092908;28;9256;-73
2022/09/10 21:40:01;;;;;;;;;0.67;0.67;;;;;;;;5079208;28;9605;-72
2022/09/10 21:42:26;;;;;;;;;1.67;0.33;;;;;;;;5079147;28;11548;-72
2022/09/10 21:44:51;;;;;;;;;1.67;1.67;;;;;;;;5077928;28;11561;-72
2022/09/10 21:47:17;;;;;;;;;2.00;2.00;;;;;;;;5078847;28;9226;-72
2022/09/10 21:49:42;;;;;;;;;1.00;1.00;;;;;;;;5078869;28;11746;-72
2022/09/10 21:52:08;;;;;;;;;2.67;0.00;;;;;;;;5079513;28;8813;-72
2022/09/10 21:54:35;;;;;;;;;3.00;2.00;;;;;;;;5079195;28;10497;-72
2022/09/10 21:57:01;;;;;;;;;3.00;2.00;;;;;;;;5079650;28;10601;-73
2022/09/10 21:59:27;;;;;;;;;2.75;2.75;;;;;;;;5079468;28;8834;-72
2022/09/10 22:01:53;;;;;;;;;3.67;2.67;;;;;;;;5094620;28;13747;-72
2022/09/10 22:04:18;;;;;;;;;1.33;1.00;;;;;;;;5077188;28;14663;-72
2022/09/10 22:06:43;;;;;;;;;1.67;1.00;;;;;;;;5078630;28;11808;-72
2022/09/10 22:09:10;;;;;;;;;3.67;3.00;;;;;;;;5079008;28;8789;-72
2022/09/10 22:11:37;;;;;;;;;2.00;2.00;;;;;;;;5098058;28;8799;-73
2022/09/10 22:14:04;;;;;;;;;2.50;2.50;;;;;;;;5099182;28;10587;-73
2022/09/10 22:16:30;;;;;;;;;3.75;3.75;;;;;;;;5098585;28;8868;-72
2022/09/10 22:18:56;;;;;;;;;4.50;2.00;;;;;;;;5099609;28;11584;-73
2022/09/10 22:21:21;;;;;;;;;3.00;3.00;;;;;;;;5098789;28;12756;-74
2022/09/10 22:23:49;;;;;;;;;1.67;1.33;;;;;;;;5099023;28;10445;-73
2022/09/10 22:26:16;;;;;;;;;2.50;2.25;;;;;;;;5099199;28;11561;-73
2022/09/10 22:28:43;;;;;;;;;2.75;2.00;;;;;;;;5098602;28;10782;-74
2022/09/10 22:31:08;;;;;;;;;2.25;2.00;;;;;;;;5098315;28;9769;-72
2022/09/10 22:33:35;;;;;;;;;2.00;1.67;;;;;;;;5098226;28;8791;-74
2022/09/10 22:36:09;;;;;;;;;2.00;1.75;;;;;;;;5099057;28;11021;-74
2022/09/10 22:38:34;;;;;;;;;3.00;3.00;;;;;;;;5099339;28;8775;-73
2022/09/10 22:41:03;;;;;;;;;5.00;3.00;;;;;;;;5098817;28;12830;-74
2022/09/10 22:43:29;;;;;;;;;3.75;2.00;;;;;;;;5098273;28;8888;-73
2022/09/10 22:45:54;;;;;;;;;1.33;1.00;;;;;;;;5098915;28;11395;-73
2022/09/10 22:48:19;;;;;;;;;1.00;1.00;;;;;;;;5099068;28;9830;-72
2022/09/10 22:50:45;;;;;;;;;1.67;1.00;;;;;;;;5099298;28;8779;-73
2022/09/10 22:53:11;;;;;;;;;0.25;0.25;;;;;;;;5098472;28;8933;-73
2022/09/10 22:55:36;;;;;;;;;1.67;1.67;;;;;;;;5098219;28;11500;-73
2022/09/10 22:58:02;;;;;;;;;1.00;1.00;;;;;;;;5100977;28;12762;-74
2022/09/10 23:00:27;;;;;;;;;3.67;1.00;;;;;;;;5100625;28;10312;-74
2022/09/10 23:02:53;;;;;;;;;2.00;2.00;;;;;;;;5102054;28;9208;-73
2022/09/10 23:05:18;;;;;;;;;2.00;2.00;;;;;;;;5101644;28;10535;-74
2022/09/10 23:07:44;;;;;;;;;1.00;1.00;;;;;;;;5102989;28;8892;-71
2022/09/10 23:10:09;;;;;;;;;2.00;1.00;;;;;;;;5101683;28;9030;-72
2022/09/10 23:12:34;;;;;;;;;2.00;1.00;;;;;;;;5102447;28;8807;-72
2022/09/10 23:15:00;;;;;;;;;2.00;2.00;;;;;;;;5101589;28;8801;-72
2022/09/10 23:17:25;;;;;;;;;2.00;0.33;;;;;;;;5102046;28;8822;-72
2022/09/10 23:19:51;;;;;;;;;3.00;1.33;;;;;;;;5101917;28;9078;-72
2022/09/10 23:22:16;;;;;;;;;2.00;2.00;;;;;;;;5101211;28;8987;-72
2022/09/10 23:24:41;;;;;;;;;2.00;0.33;;;;;;;;5101027;28;13215;-71
2022/09/10 23:27:07;;;;;;;;;1.00;1.00;;;;;;;;5101460;28;9378;-72
2022/09/10 23:29:34;;;;;;;;;2.00;0.00;;;;;;;;5100926;28;11735;-72
2022/09/10 23:32:02;;;;;;;;;0.25;0.25;;;;;;;;5101766;28;9862;-72
2022/09/10 23:34:27;;;;;;;;;0.00;0.00;;;;;;;;5100880;28;13151;-72
2022/09/10 23:36:53;;;;;;;;;1.00;0.33;;;;;;;;5100370;28;9142;-71
2022/09/10 23:39:20;;;;;;;;;2.33;0.33;;;;;;;;5101483;28;11610;-71
2022/09/10 23:41:46;;;;;;;;;2.00;1.00;;;;;;;;5101133;28;9173;-71
2022/09/10 23:44:12;;;;;;;;;3.00;2.00;;;;;;;;5101122;28;10636;-71
2022/09/10 23:46:37;;;;;;;;;2.00;1.00;;;;;;;;5100859;28;10678;-71
2022/09/10 23:49:03;;;;;;;;;1.00;1.00;;;;;;;;5101057;28;9475;-71
2022/09/10 23:51:28;;;;;;;;;1.33;1.00;;;;;;;;5101424;28;8798;-71
2022/09/10 23:53:54;;;;;;;;;1.00;1.00;;;;;;;;5101905;28;8779;-71
2022/09/10 23:56:20;;;;;;;;;2.50;0.75;;;;;;;;5101246;28;8884;-71
2022/09/10 23:58:46;;;;;;;;;2.00;1.00;;;;;;;;5100156;28;12082;-73
